Time;durP1;ratioP1;P1;durP2;ratioP2;P2;SDS_P1;SDS_P2;PMS_P1;PMS_P2;Temp;Humidity;BMP_temperature;BMP_pressure;BME280_temperature;BME280_humidity;BME280_pressure;Samples;Min_cycle;Max_cycle;Signal;HPM_P1;HPM_P2
2024/01/07 00:01:46;;;;;;;;;;;;;;;10.14;39.76;97443.16;5026274;28;19925;-84
2024/01/07 00:04:12;;;;;;;;;;;;;;;9.91;39.74;97436.72;5047306;28;20078;-84
2024/01/07 00:06:38;;;;;;;;;;;;;;;11.16;37.35;97438.22;5038528;28;20337;-85
2024/01/07 00:09:04;;;;;;;;;;;;;;;11.45;36.68;97438.41;5045888;28;19983;-84
2024/01/07 00:11:30;;;;;;;;;;;;;;;9.76;39.34;97440.25;5045343;28;20297;-84
2024/01/07 00:13:56;;;;;;;;;;;;;;;11.39;36.99;97441.81;5044860;28;19929;-85
2024/01/07 00:16:22;;;;;;;;;;;;;;;11.70;36.01;97449.84;5044087;28;19940;-84
2024/01/07 00:18:48;;;;;;;;;;;;;;;12.22;34.89;97447.16;5047309;28;19966;-84
2024/01/07 00:21:14;;;;;;;;;;;;;;;11.24;36.47;97443.50;5045061;28;19947;-84
2024/01/07 00:23:40;;;;;;;;;;;;;;;12.53;33.62;97459.81;5044506;28;19921;-84
2024/01/07 00:26:06;;;;;;;;;;;;;;;13.05;33.13;97454.22;5046852;28;19925;-84
2024/01/07 00:28:32;;;;;;;;;;;;;;;12.17;34.39;97452.97;5045476;28;19921;-84
2024/01/07 00:30:58;;;;;;;;;;;;;;;13.05;32.94;97454.22;5044576;28;19994;-84
2024/01/07 00:33:24;;;;;;;;;;;;;;;12.61;33.77;97464.22;5048976;28;19940;-84
2024/01/07 00:35:50;;;;;;;;;;;;;;;10.21;38.49;97462.53;5046216;28;19925;-84
2024/01/07 00:38:16;;;;;;;;;;;;;;;12.53;34.56;97461.75;5046484;28;20404;-84
2024/01/07 00:40:43;;;;;;;;;;;;;;;12.68;33.84;97458.03;5027867;28;19928;-84
2024/01/07 00:43:09;;;;;;;;;;;;;;;11.82;34.91;97451.59;5042603;28;20400;-84
2024/01/07 00:45:35;;;;;;;;;;;;;;;9.51;39.16;97461.56;5026371;28;19925;-83
2024/01/07 00:48:01;;;;;;;;;;;;;;;9.77;38.95;97458.28;5021688;28;19975;-84
2024/01/07 00:50:27;;;;;;;;;;;;;;;9.80;38.80;97473.25;5044506;28;19924;-84
2024/01/07 00:52:53;;;;;;;;;;;;;;;12.15;34.70;97471.03;5039521;28;19928;-84
2024/01/07 00:55:19;;;;;;;;;;;;;;;10.34;37.39;97471.41;5045549;28;20277;-84
2024/01/07 00:57:45;;;;;;;;;;;;;;;11.52;35.48;97459.72;5043366;28;19921;-84
2024/01/07 01:00:11;;;;;;;;;;;;;;;12.13;34.76;97467.84;5041685;28;19921;-84
2024/01/07 01:02:37;;;;;;;;;;;;;;;13.06;32.76;97466.03;5045338;28;19925;-84
2024/01/07 01:05:07;;;;;;;;;;;;;;;11.54;34.87;97460.13;5043599;28;19943;-84
2024/01/07 01:07:33;;;;;;;;;;;;;;;9.77;38.08;97482.97;5045827;28;20034;-84
2024/01/07 01:09:59;;;;;;;;;;;;;;;10.30;37.40;97485.06;5044638;28;19940;-84
2024/01/07 01:12:25;;;;;;;;;;;;;;;9.76;38.70;97486.84;5044531;28;20056;-83
2024/01/07 01:14:51;;;;;;;;;;;;;;;10.10;37.82;97493.56;5011261;28;19924;-84
2024/01/07 01:17:17;;;;;;;;;;;;;;;10.65;36.83;97493.28;5046867;28;19920;-84
2024/01/07 01:19:42;;;;;;;;;;;;;;;10.80;36.81;97477.94;5047041;28;19947;-84
2024/01/07 01:22:08;;;;;;;;;;;;;;;8.68;40.65;97488.19;5050705;28;20365;-84
2024/01/07 01:24:34;;;;;;;;;;;;;;;7.48;42.96;97474.22;5045106;28;19934;-84
2024/01/07 01:27:01;;;;;;;;;;;;;;;7.75;43.21;97485.63;5048125;28;19936;-84
2024/01/07 01:29:27;;;;;;;;;;;;;;;9.15;40.47;97491.88;5047098;28;19921;-84
2024/01/07 01:31:53;;;;;;;;;;;;;;;9.30;39.59;97493.06;5046851;28;19970;-84
2024/01/07 01:34:19;;;;;;;;;;;;;;;10.43;37.71;97496.72;5047011;28;19921;-84
2024/01/07 01:36:45;;;;;;;;;;;;;;;10.03;38.05;97491.44;5047831;28;19933;-84
2024/01/07 01:39:11;;;;;;;;;;;;;;;9.23;39.29;97496.41;5047687;28;20353;-84
2024/01/07 01:41:37;;;;;;;;;;;;;;;8.25;41.31;97503.28;5046596;28;19929;-84
2024/01/07 01:44:03;;;;;;;;;;;;;;;7.33;43.66;97504.88;5050114;28;20020;-84
2024/01/07 01:46:29;;;;;;;;;;;;;;;7.63;42.46;97498.13;5047322;28;19921;-84
2024/01/07 01:48:55;;;;;;;;;;;;;;;7.68;43.25;97504.53;5045684;28;20073;-84
2024/01/07 01:51:22;;;;;;;;;;;;;;;9.33;38.57;97487.69;5046077;28;19932;-84
2024/01/07 01:53:49;;;;;;;;;;;;;;;8.59;40.63;97506.69;5048114;28;20319;-84
2024/01/07 01:56:16;;;;;;;;;;;;;;;9.38;39.35;97500.34;5049052;28;20376;-84
2024/01/07 01:58:42;;;;;;;;;;;;;;;9.86;37.16;97499.22;5049162;28;20377;-84
2024/01/07 02:01:08;;;;;;;;;;;;;;;9.15;39.03;97505.56;5030081;28;19979;-85
2024/01/07 02:03:34;;;;;;;;;;;;;;;9.29;38.72;97497.75;5044259;28;19929;-84
2024/01/07 02:06:00;;;;;;;;;;;;;;;9.30;38.88;97506.75;5048967;28;21148;-85
2024/01/07 02:08:26;;;;;;;;;;;;;;;8.35;40.33;97507.53;5048564;28;20415;-85
2024/01/07 02:11:02;;;;;;;;;;;;;;;7.79;41.34;97508.41;5047258;28;19967;-85
2024/01/07 02:13:27;;;;;;;;;;;;;;;7.85;41.99;97509.75;5047036;28;19974;-85
2024/01/07 02:15:56;;;;;;;;;;;;;;;7.51;42.21;97509.03;5025891;28;19935;-85
2024/01/07 02:18:22;;;;;;;;;;;;;;;7.93;41.38;97512.41;5030656;28;19921;-86
2024/01/07 02:20:48;;;;;;;;;;;;;;;7.83;41.60;97510.13;5043814;28;19921;-86
2024/01/07 02:23:14;;;;;;;;;;;;;;;7.41;42.72;97516.88;5044336;28;19924;-86
2024/01/07 02:25:40;;;;;;;;;;;;;;;7.08;43.53;97516.06;5045355;28;19979;-85
2024/01/07 02:28:06;;;;;;;;;;;;;;;8.28;40.77;97518.22;5045647;28;19971;-85
2024/01/07 02:30:32;;;;;;;;;;;;;;;8.51;40.19;97513.06;5047241;28;19921;-86
2024/01/07 02:33:03;;;;;;;;;;;;;;;9.00;39.54;97511.81;5045085;28;19921;-86
2024/01/07 02:35:29;;;;;;;;;;;;;;;8.76;39.72;97515.41;5044861;28;20420;-86
2024/01/07 02:37:55;;;;;;;;;;;;;;;8.68;38.88;97516.31;5045316;28;19925;-85
2024/01/07 02:40:21;;;;;;;;;;;;;;;8.31;40.02;97512.88;5043496;28;19930;-86
2024/01/07 02:42:47;;;;;;;;;;;;;;;9.67;37.79;97508.16;5043668;28;19936;-86
2024/01/07 02:45:13;;;;;;;;;;;;;;;8.71;38.71;97503.91;5045454;28;19921;-86
2024/01/07 02:47:39;;;;;;;;;;;;;;;8.87;38.29;97513.78;5045564;28;19928;-86
2024/01/07 02:50:05;;;;;;;;;;;;;;;9.95;37.00;97513.53;5043279;28;19925;-86
2024/01/07 02:52:31;;;;;;;;;;;;;;;9.64;37.40;97517.84;5046995;28;19936;-85
2024/01/07 02:54:57;;;;;;;;;;;;;;;10.64;35.56;97518.38;5044443;28;19986;-85
2024/01/07 02:57:23;;;;;;;;;;;;;;;8.00;38.76;97507.16;5045739;28;19921;-85
2024/01/07 02:59:49;;;;;;;;;;;;;;;6.72;42.39;97520.22;5029638;28;19939;-86
2024/01/07 03:02:15;;;;;;;;;;;;;;;7.47;40.99;97524.50;5043164;28;20013;-85
2024/01/07 03:04:41;;;;;;;;;;;;;;;7.86;40.64;97522.28;5048021;28;20261;-85
2024/01/07 03:07:07;;;;;;;;;;;;;;;7.94;40.28;97522.19;5047370;28;20276;-86
2024/01/07 03:09:33;;;;;;;;;;;;;;;9.81;36.21;97514.00;5045494;28;19939;-85
2024/01/07 03:11:59;;;;;;;;;;;;;;;9.91;35.89;97513.47;5048046;28;20036;-86
2024/01/07 03:14:26;;;;;;;;;;;;;;;9.73;36.05;97517.72;5045473;28;20415;-86
2024/01/07 03:16:52;;;;;;;;;;;;;;;8.98;37.45;97520.34;5046984;28;19920;-85
2024/01/07 03:19:18;;;;;;;;;;;;;;;7.73;40.00;97526.13;5046364;28;20448;-86
2024/01/07 03:21:44;;;;;;;;;;;;;;;7.97;39.63;97521.50;5046273;28;19927;-86
2024/01/07 03:24:10;;;;;;;;;;;;;;;8.34;39.09;97530.53;5045139;28;20577;-86
2024/01/07 03:26:36;;;;;;;;;;;;;;;9.17;36.84;97522.44;5028468;28;19921;-86
2024/01/07 03:29:02;;;;;;;;;;;;;;;10.76;34.35;97523.72;5045346;28;19960;-86
2024/01/07 03:31:28;;;;;;;;;;;;;;;11.59;32.63;97518.38;5024916;28;19931;-86
2024/01/07 03:33:54;;;;;;;;;;;;;;;9.87;35.36;97520.78;5046599;28;19979;-86
2024/01/07 03:36:20;;;;;;;;;;;;;;;10.54;34.32;97518.91;5045878;28;19921;-86
2024/01/07 03:38:46;;;;;;;;;;;;;;;10.09;35.16;97522.13;5040416;28;20013;-86
2024/01/07 03:41:19;;;;;;;;;;;;;;;9.90;35.47;97516.53;5042611;28;20361;-87
2024/01/07 03:43:48;;;;;;;;;;;;;;;10.05;34.72;97522.06;5046254;28;19924;-86
2024/01/07 03:46:15;;;;;;;;;;;;;;;10.10;34.06;97520.97;5031336;28;19983;-86
2024/01/07 03:48:41;;;;;;;;;;;;;;;9.85;35.15;97531.31;5040529;28;19947;-86
2024/01/07 03:51:07;;;;;;;;;;;;;;;9.75;35.84;97527.16;5043254;28;19921;-86
2024/01/07 03:53:33;;;;;;;;;;;;;;;9.52;35.35;97528.88;5046148;28;19935;-86
2024/01/07 03:56:01;;;;;;;;;;;;;;;7.89;38.68;97540.75;5046635;28;21788;-86
2024/01/07 03:58:27;;;;;;;;;;;;;;;8.96;36.69;97544.53;5046880;28;20012;-87
2024/01/07 04:00:53;;;;;;;;;;;;;;;7.68;39.06;97549.81;5046071;28;19921;-86
2024/01/07 04:03:19;;;;;;;;;;;;;;;9.09;36.42;97541.75;5045527;28;19963;-86
2024/01/07 04:05:45;;;;;;;;;;;;;;;8.75;36.09;97549.38;5043307;28;20364;-87
2024/01/07 04:08:12;;;;;;;;;;;;;;;8.26;37.83;97545.13;5045215;28;19952;-86
2024/01/07 04:10:38;;;;;;;;;;;;;;;7.64;38.45;97545.38;5046086;28;19920;-86
2024/01/07 04:13:04;;;;;;;;;;;;;;;6.96;39.69;97542.19;5044178;28;19924;-87
2024/01/07 04:15:30;;;;;;;;;;;;;;;7.73;39.30;97542.53;5044843;28;20011;-86
2024/01/07 04:17:56;;;;;;;;;;;;;;;7.33;39.16;97554.03;5046681;28;19963;-87
2024/01/07 04:20:22;;;;;;;;;;;;;;;5.19;43.58;97551.69;5044867;28;20373;-87
2024/01/07 04:22:48;;;;;;;;;;;;;;;7.15;39.94;97560.00;5046160;28;19943;-86
2024/01/07 04:25:14;;;;;;;;;;;;;;;8.47;36.84;97556.72;5039260;28;19920;-87
2024/01/07 04:27:40;;;;;;;;;;;;;;;9.36;34.72;97560.94;5043759;28;19936;-87
2024/01/07 04:30:06;;;;;;;;;;;;;;;9.04;35.10;97556.50;5043722;28;19929;-88
2024/01/07 04:32:32;;;;;;;;;;;;;;;10.15;33.53;97561.88;5040638;28;19943;-87
2024/01/07 04:34:58;;;;;;;;;;;;;;;9.71;33.68;97558.34;5042649;28;20384;-87
2024/01/07 04:37:24;;;;;;;;;;;;;;;9.45;33.56;97550.59;5044801;28;20376;-87
2024/01/07 04:39:50;;;;;;;;;;;;;;;7.61;37.39;97565.94;5042781;28;19921;-87
2024/01/07 04:42:19;;;;;;;;;;;;;;;8.52;35.76;97566.66;5047220;28;19921;-86
2024/01/07 04:44:45;;;;;;;;;;;;;;;7.40;38.06;97573.41;5043782;28;20418;-87
2024/01/07 04:47:30;;;;;;;;;;;;;;;7.91;36.64;97563.84;5043284;28;19921;-86
2024/01/07 04:49:57;;;;;;;;;;;;;;;7.65;37.69;97575.06;5043074;28;19966;-87
2024/01/07 04:52:23;;;;;;;;;;;;;;;9.84;33.97;97572.78;5044717;28;20019;-86
2024/01/07 04:54:50;;;;;;;;;;;;;;;8.48;35.78;97582.94;5043916;28;20011;-87
2024/01/07 04:57:16;;;;;;;;;;;;;;;8.05;36.75;97591.66;5044539;28;20296;-86
2024/01/07 04:59:42;;;;;;;;;;;;;;;8.47;36.32;97592.25;5049732;28;19929;-86
2024/01/07 05:02:08;;;;;;;;;;;;;;;10.35;32.67;97574.53;5046376;28;19927;-86
2024/01/07 05:04:35;;;;;;;;;;;;;;;9.40;33.80;97586.50;5045627;28;19925;-87
2024/01/07 05:07:01;;;;;;;;;;;;;;;9.41;34.15;97593.56;5045160;28;19921;-87
2024/01/07 05:09:27;;;;;;;;;;;;;;;8.43;35.59;97588.63;5045897;28;19920;-86
2024/01/07 05:11:53;;;;;;;;;;;;;;;10.37;32.92;97588.69;5043999;28;19978;-86
2024/01/07 05:14:19;;;;;;;;;;;;;;;9.77;33.38;97591.78;5041963;28;19951;-86
2024/01/07 05:16:45;;;;;;;;;;;;;;;10.02;32.47;97591.31;5042146;28;20219;-86
2024/01/07 05:19:11;;;;;;;;;;;;;;;10.48;32.07;97588.94;5046082;28;20373;-86
2024/01/07 05:21:37;;;;;;;;;;;;;;;9.00;34.88;97594.72;5030012;28;19916;-86
2024/01/07 05:24:04;;;;;;;;;;;;;;;7.23;37.59;97595.41;5042598;28;19944;-86
2024/01/07 05:26:30;;;;;;;;;;;;;;;7.47;37.56;97600.97;5045717;28;19935;-86
2024/01/07 05:28:56;;;;;;;;;;;;;;;8.22;36.35;97602.38;5042784;28;22567;-86
2024/01/07 05:31:22;;;;;;;;;;;;;;;9.38;34.24;97593.47;5040375;28;19967;-86
2024/01/07 05:33:48;;;;;;;;;;;;;;;8.79;35.27;97599.56;5042985;28;20044;-84
2024/01/07 05:36:14;;;;;;;;;;;;;;;7.79;37.25;97604.03;5043410;28;19925;-86
2024/01/07 05:38:43;;;;;;;;;;;;;;;8.50;35.78;97604.47;5045901;28;19928;-86
2024/01/07 05:41:09;;;;;;;;;;;;;;;8.57;35.53;97605.50;5044082;28;19925;-86
2024/01/07 05:43:36;;;;;;;;;;;;;;;9.21;34.40;97599.22;5044265;28;19962;-86
2024/01/07 05:46:03;;;;;;;;;;;;;;;7.56;37.18;97606.34;5042864;28;19925;-86
2024/01/07 05:48:29;;;;;;;;;;;;;;;6.32;40.03;97606.31;5039775;28;19925;-86
2024/01/07 05:50:55;;;;;;;;;;;;;;;7.59;37.90;97597.47;5044842;28;19929;-86
2024/01/07 05:53:21;;;;;;;;;;;;;;;8.60;35.72;97606.75;5044436;28;22558;-86
2024/01/07 05:55:47;;;;;;;;;;;;;;;8.80;34.89;97595.66;5046262;28;19935;-86
2024/01/07 05:58:13;;;;;;;;;;;;;;;9.86;33.56;97595.97;5043456;28;19925;-86
2024/01/07 06:00:39;;;;;;;;;;;;;;;10.15;32.27;97601.06;5043503;28;19928;-86
2024/01/07 06:03:06;;;;;;;;;;;;;;;10.67;31.59;97605.47;5044123;28;19935;-86
2024/01/07 06:05:32;;;;;;;;;;;;;;;9.93;33.21;97612.59;5046276;28;19921;-86
2024/01/07 06:07:58;;;;;;;;;;;;;;;8.43;35.67;97624.19;5047816;28;19928;-86
2024/01/07 06:10:24;;;;;;;;;;;;;;;6.91;38.26;97629.69;5044859;28;19947;-86
2024/01/07 06:12:50;;;;;;;;;;;;;;;7.68;36.81;97631.75;5045538;28;19983;-86
2024/01/07 06:15:17;;;;;;;;;;;;;;;8.14;36.47;97622.44;5030870;28;19927;-86
2024/01/07 06:17:43;;;;;;;;;;;;;;;7.35;37.39;97627.44;5033781;28;19916;-86
2024/01/07 06:20:09;;;;;;;;;;;;;;;7.87;36.84;97633.16;5046496;28;19921;-86
2024/01/07 06:22:35;;;;;;;;;;;;;;;7.76;37.22;97630.09;5046044;28;19924;-86
2024/01/07 06:25:01;;;;;;;;;;;;;;;7.92;36.39;97641.16;5046466;28;20422;-85
2024/01/07 06:27:27;;;;;;;;;;;;;;;7.44;37.13;97637.16;5049476;28;19955;-86
2024/01/07 06:29:53;;;;;;;;;;;;;;;7.28;37.93;97649.00;5048875;28;19921;-86
2024/01/07 06:32:19;;;;;;;;;;;;;;;8.01;36.50;97644.59;5042220;28;19927;-86
2024/01/07 06:34:46;;;;;;;;;;;;;;;8.30;35.80;97641.72;5049317;28;20455;-85
2024/01/07 06:37:12;;;;;;;;;;;;;;;6.89;38.76;97648.31;5045874;28;19975;-86
2024/01/07 06:39:38;;;;;;;;;;;;;;;7.57;37.42;97646.16;5048553;28;20311;-86
2024/01/07 06:42:04;;;;;;;;;;;;;;;8.73;35.21;97646.63;5043876;28;19913;-86
2024/01/07 06:44:30;;;;;;;;;;;;;;;9.01;34.63;97650.25;5047144;28;19978;-86
2024/01/07 06:46:56;;;;;;;;;;;;;;;10.08;32.56;97641.22;5049806;28;19929;-86
2024/01/07 06:49:22;;;;;;;;;;;;;;;7.46;36.32;97648.53;5053585;28;19927;-86
2024/01/07 06:51:48;;;;;;;;;;;;;;;6.25;39.93;97665.97;5046047;28;19925;-85
2024/01/07 06:54:14;;;;;;;;;;;;;;;6.41;39.14;97663.50;5050658;28;19924;-85
2024/01/07 06:56:40;;;;;;;;;;;;;;;6.17;39.63;97664.06;5030595;28;19920;-85
2024/01/07 06:59:07;;;;;;;;;;;;;;;7.48;37.71;97665.38;5044166;28;19929;-86
2024/01/07 07:01:33;;;;;;;;;;;;;;;7.90;36.27;97665.28;5054530;28;19921;-86
2024/01/07 07:03:59;;;;;;;;;;;;;;;7.47;37.09;97677.41;5051045;28;19925;-86
2024/01/07 07:06:25;;;;;;;;;;;;;;;8.78;35.29;97671.03;5027124;28;20388;-85
2024/01/07 07:08:51;;;;;;;;;;;;;;;8.25;35.85;97670.06;5048037;28;20300;-86
2024/01/07 07:11:17;;;;;;;;;;;;;;;7.95;36.48;97676.81;5050386;28;19920;-86
2024/01/07 07:13:43;;;;;;;;;;;;;;;8.09;36.09;97679.25;5044938;28;19928;-85
2024/01/07 07:16:09;;;;;;;;;;;;;;;5.89;39.65;97679.22;5047802;28;19929;-86
2024/01/07 07:18:35;;;;;;;;;;;;;;;6.83;38.93;97681.56;5037922;28;19933;-87
2024/01/07 07:21:01;;;;;;;;;;;;;;;7.19;38.14;97686.50;5050597;28;20427;-86
2024/01/07 07:23:27;;;;;;;;;;;;;;;7.59;37.86;97688.41;5031930;28;19920;-86
2024/01/07 07:25:53;;;;;;;;;;;;;;;6.98;38.14;97683.72;5043563;28;20369;-87
2024/01/07 07:28:19;;;;;;;;;;;;;;;6.86;38.67;97691.84;5047192;28;19964;-84
2024/01/07 07:30:45;;;;;;;;;;;;;;;6.16;40.24;97692.47;5044223;28;19925;-85
2024/01/07 07:33:11;;;;;;;;;;;;;;;6.75;38.79;97694.13;5053366;28;19931;-87
2024/01/07 07:35:39;;;;;;;;;;;;;;;6.73;39.11;97699.13;5053869;28;19917;-89
2024/01/07 07:38:06;;;;;;;;;;;;;;;6.28;39.46;97700.72;5052741;28;19925;-89
2024/01/07 07:40:32;;;;;;;;;;;;;;;5.81;40.66;97699.84;5042292;28;19988;-88
2024/01/07 07:42:58;;;;;;;;;;;;;;;4.63;43.82;97719.28;5046403;28;19917;-86
2024/01/07 07:45:24;;;;;;;;;;;;;;;4.98;43.48;97706.56;5037905;28;19929;-85
2024/01/07 07:47:50;;;;;;;;;;;;;;;6.37;39.77;97706.19;5046963;28;19978;-86
2024/01/07 07:50:16;;;;;;;;;;;;;;;5.99;40.09;97704.19;5052220;28;19921;-88
2024/01/07 07:52:43;;;;;;;;;;;;;;;5.42;41.99;97716.38;5027924;28;20416;-87
2024/01/07 07:55:09;;;;;;;;;;;;;;;5.01;41.47;97714.09;5055763;28;20353;-89
2024/01/07 07:57:36;;;;;;;;;;;;;;;5.91;40.63;97728.72;5046517;28;19924;-89
2024/01/07 08:00:02;;;;;;;;;;;;;;;7.59;37.03;97717.66;5044285;28;19917;-90
2024/01/07 08:02:28;;;;;;;;;;;;;;;7.85;36.61;97715.50;5046397;28;19928;-88
2024/01/07 08:04:54;;;;;;;;;;;;;;;7.83;36.08;97730.63;5045061;28;19926;-86
2024/01/07 08:07:20;;;;;;;;;;;;;;;6.89;38.29;97729.34;5047050;28;19921;-86
2024/01/07 08:09:46;;;;;;;;;;;;;;;6.61;37.98;97733.66;5042460;28;20011;-87
2024/01/07 08:12:13;;;;;;;;;;;;;;;8.50;35.42;97731.09;5046900;28;20392;-87
2024/01/07 08:14:41;;;;;;;;;;;;;;;9.91;32.46;97738.28;5044273;28;20657;-87
2024/01/07 08:17:07;;;;;;;;;;;;;;;8.82;33.74;97730.22;5048736;28;19921;-91
2024/01/07 08:19:33;;;;;;;;;;;;;;;7.47;36.87;97745.69;5042744;28;20396;-88
2024/01/07 08:21:59;;;;;;;;;;;;;;;6.45;39.13;97744.31;5042476;28;19920;-88
2024/01/07 08:24:25;;;;;;;;;;;;;;;6.84;38.20;97746.72;5044693;28;20319;-88
2024/01/07 08:26:51;;;;;;;;;;;;;;;5.30;41.06;97751.56;5052243;28;20011;-86
2024/01/07 08:29:17;;;;;;;;;;;;;;;5.05;42.12;97752.34;5043698;28;19921;-86
2024/01/07 08:31:43;;;;;;;;;;;;;;;6.11;40.41;97749.84;5044386;28;19944;-85
2024/01/07 08:34:09;;;;;;;;;;;;;;;7.04;37.83;97737.00;5035403;28;20031;-85
2024/01/07 08:36:35;;;;;;;;;;;;;;;6.55;38.74;97735.78;5046066;28;20342;-85
2024/01/07 08:39:01;;;;;;;;;;;;;;;7.17;38.10;97746.03;5045674;28;19921;-86
2024/01/07 08:41:27;;;;;;;;;;;;;;;6.02;39.48;97755.28;5043901;28;19917;-88
2024/01/07 08:43:53;;;;;;;;;;;;;;;5.49;41.57;97760.25;5035006;28;19924;-88
2024/01/07 08:46:22;;;;;;;;;;;;;;;6.16;41.08;97757.84;5048157;28;19936;-86
2024/01/07 08:48:48;;;;;;;;;;;;;;;5.84;40.65;97763.78;5045789;28;19921;-87
2024/01/07 08:51:14;;;;;;;;;;;;;;;6.19;39.50;97760.72;5044529;28;19928;-86
2024/01/07 08:53:40;;;;;;;;;;;;;;;5.83;39.65;97771.16;5049635;28;20309;-86
2024/01/07 08:56:06;;;;;;;;;;;;;;;6.41;38.52;97761.63;5045988;28;19973;-86
2024/01/07 08:58:32;;;;;;;;;;;;;;;7.46;36.68;97759.69;5047155;28;19921;-86
2024/01/07 09:00:58;;;;;;;;;;;;;;;7.01;37.41;97762.19;5042757;28;20383;-87
2024/01/07 09:03:24;;;;;;;;;;;;;;;8.99;34.36;97756.56;5033697;28;19921;-88
2024/01/07 09:05:50;;;;;;;;;;;;;;;9.17;33.60;97762.63;5045083;28;19924;-87
2024/01/07 09:08:16;;;;;;;;;;;;;;;9.92;32.42;97756.31;5046100;28;20015;-86
2024/01/07 09:10:42;;;;;;;;;;;;;;;10.85;30.93;97760.47;5038161;28;19928;-86
2024/01/07 09:13:08;;;;;;;;;;;;;;;9.60;33.24;97765.53;5045560;28;20304;-85
2024/01/07 09:15:34;;;;;;;;;;;;;;;7.84;35.42;97770.50;5046382;28;19922;-86
2024/01/07 09:18:00;;;;;;;;;;;;;;;10.28;32.03;97758.16;5040521;28;19921;-89
2024/01/07 09:20:26;;;;;;;;;;;;;;;10.87;31.10;97760.91;5047775;28;19924;-87
2024/01/07 09:22:52;;;;;;;;;;;;;;;10.96;31.05;97767.00;5042932;28;19927;-89
2024/01/07 09:25:18;;;;;;;;;;;;;;;11.41;30.33;97761.03;5048150;28;19971;-90
2024/01/07 09:27:44;;;;;;;;;;;;;;;13.74;27.27;97755.22;5046269;28;19920;-89
2024/01/07 09:30:11;;;;;;;;;;;;;;;10.42;30.70;97758.53;5054337;28;19986;-88
2024/01/07 09:32:37;;;;;;;;;;;;;;;8.76;34.03;97769.91;5052363;28;20262;-88
2024/01/07 09:35:05;;;;;;;;;;;;;;;8.71;33.76;97766.56;5050536;28;19932;-87
2024/01/07 09:37:31;;;;;;;;;;;;;;;7.45;36.13;97767.06;5040673;28;19917;-87
2024/01/07 09:39:58;;;;;;;;;;;;;;;7.52;36.26;97766.53;5028388;28;19921;-88
2024/01/07 09:42:24;;;;;;;;;;;;;;;6.97;36.58;97761.25;5053058;28;19923;-88
2024/01/07 09:44:50;;;;;;;;;;;;;;;8.46;34.61;97767.66;5047286;28;20012;-86
2024/01/07 09:47:16;;;;;;;;;;;;;;;9.17;33.39;97762.63;5053041;28;19928;-85
2024/01/07 09:49:43;;;;;;;;;;;;;;;9.53;32.85;97760.66;5050588;28;20011;-85
2024/01/07 09:52:09;;;;;;;;;;;;;;;7.94;35.04;97770.88;5049544;28;20289;-86
2024/01/07 09:54:35;;;;;;;;;;;;;;;8.00;35.22;97768.75;5048734;28;19929;-84
2024/01/07 09:57:02;;;;;;;;;;;;;;;8.09;34.94;97764.78;5046810;28;19928;-85
2024/01/07 09:59:29;;;;;;;;;;;;;;;8.79;33.51;97761.03;5047209;28;19924;-84
2024/01/07 10:01:56;;;;;;;;;;;;;;;9.05;33.39;97763.44;5052590;28;20014;-86
2024/01/07 10:04:23;;;;;;;;;;;;;;;6.84;37.01;97759.53;5041538;28;20388;-86
2024/01/07 10:06:49;;;;;;;;;;;;;;;8.25;34.88;97762.22;5043039;28;19928;-86
2024/01/07 10:09:15;;;;;;;;;;;;;;;11.66;29.94;97752.19;5041804;28;20569;-85
2024/01/07 10:11:42;;;;;;;;;;;;;;;11.93;29.11;97752.38;5044606;28;19917;-84
2024/01/07 10:14:08;;;;;;;;;;;;;;;10.51;31.60;97761.09;5045925;28;19921;-85
2024/01/07 10:16:34;;;;;;;;;;;;;;;8.69;33.75;97768.84;5026551;28;19921;-88
2024/01/07 10:19:00;;;;;;;;;;;;;;;8.29;35.14;97761.25;5048163;28;19920;-88
2024/01/07 10:21:26;;;;;;;;;;;;;;;10.88;30.67;97748.75;5051931;28;20352;-85
2024/01/07 10:24:11;;;;;;;;;;;;;;;10.06;31.56;97759.47;5054846;28;19921;-85
2024/01/07 10:26:38;;;;;;;;;;;;;;;8.01;35.21;97760.19;5047638;28;19921;-86
2024/01/07 10:29:04;;;;;;;;;;;;;;;6.67;37.27;97763.16;5057232;28;19916;-86
2024/01/07 10:31:34;;;;;;;;;;;;;;;8.95;34.42;97750.19;5048334;28;19928;-86
2024/01/07 10:34:00;;;;;;;;;;;;;;;7.54;36.04;97754.16;5046189;28;19925;-86
2024/01/07 10:36:26;;;;;;;;;;;;;;;6.10;39.15;97762.66;5048891;28;19928;-86
2024/01/07 10:38:52;;;;;;;;;;;;;;;5.86;39.00;97756.91;5041969;28;19924;-86
2024/01/07 10:41:19;;;;;;;;;;;;;;;7.59;36.82;97759.41;5051318;28;19920;-84
2024/01/07 10:43:46;;;;;;;;;;;;;;;7.13;37.07;97756.84;5047746;28;20323;-84
2024/01/07 10:46:13;;;;;;;;;;;;;;;8.29;35.18;97752.22;5051906;28;19928;-85
2024/01/07 10:48:46;;;;;;;;;;;;;;;8.76;34.25;97745.28;5054730;28;19977;-87
2024/01/07 10:51:14;;;;;;;;;;;;;;;9.57;32.16;97749.78;5049505;28;19920;-85
2024/01/07 10:53:42;;;;;;;;;;;;;;;10.72;31.15;97740.50;5046030;28;20024;-86
2024/01/07 10:56:11;;;;;;;;;;;;;;;10.82;30.87;97729.00;5042014;28;19917;-84
2024/01/07 10:58:37;;;;;;;;;;;;;;;11.14;30.03;97735.25;5052277;28;19975;-87
2024/01/07 11:01:04;;;;;;;;;;;;;;;10.14;31.49;97733.88;5047968;28;19920;-85
2024/01/07 11:03:33;;;;;;;;;;;;;;;10.38;31.76;97736.47;5049511;28;19928;-86
2024/01/07 11:06:12;;;;;;;;;;;;;;;12.12;29.31;97735.88;5036172;28;19921;-83
2024/01/07 11:08:44;;;;;;;;;;;;;;;12.75;27.84;97733.53;5039987;28;19967;-84
2024/01/07 11:11:18;;;;;;;;;;;;;;;14.10;25.74;97735.19;5045049;28;19960;-85
2024/01/07 11:13:44;;;;;;;;;;;;;;;12.50;27.75;97744.09;5048093;28;20003;-86
2024/01/07 11:16:13;;;;;;;;;;;;;;;9.31;32.17;97743.91;5046595;28;20054;-86
2024/01/07 11:18:40;;;;;;;;;;;;;;;8.65;34.17;97744.13;5045966;28;19967;-83
2024/01/07 11:21:06;;;;;;;;;;;;;;;6.85;37.38;97750.25;5047903;28;19978;-87
2024/01/07 11:23:39;;;;;;;;;;;;;;;7.43;36.19;97747.50;5048279;28;19979;-86
2024/01/07 11:26:06;;;;;;;;;;;;;;;7.31;36.18;97757.53;5046271;28;19967;-84
2024/01/07 11:28:50;;;;;;;;;;;;;;;9.57;32.97;97750.59;5047479;28;20016;-85
2024/01/07 11:31:17;;;;;;;;;;;;;;;10.95;30.62;97743.44;5044073;28;19921;-85
2024/01/07 11:33:45;;;;;;;;;;;;;;;10.79;30.94;97746.19;5045531;28;19925;-85
2024/01/07 11:36:12;;;;;;;;;;;;;;;10.61;30.96;97747.69;5043675;28;19925;-85
2024/01/07 11:38:41;;;;;;;;;;;;;;;10.05;31.49;97752.41;5044484;28;19921;-86
2024/01/07 11:41:09;;;;;;;;;;;;;;;9.93;31.84;97755.19;5052269;28;20371;-85
2024/01/07 11:43:35;;;;;;;;;;;;;;;10.06;31.58;97756.72;5042401;28;19975;-85
2024/01/07 11:46:01;;;;;;;;;;;;;;;9.20;33.14;97762.72;5044228;28;19917;-85
2024/01/07 11:48:27;;;;;;;;;;;;;;;10.19;31.98;97763.78;5039928;28;19917;-85
2024/01/07 11:50:53;;;;;;;;;;;;;;;9.18;32.55;97761.47;5044616;28;19993;-87
2024/01/07 11:53:20;;;;;;;;;;;;;;;9.49;32.64;97756.19;5048066;28;19921;-86
2024/01/07 11:55:46;;;;;;;;;;;;;;;8.98;33.35;97760.47;5048448;28;19925;-86
2024/01/07 11:58:12;;;;;;;;;;;;;;;10.03;31.96;97762.91;5050112;28;20041;-87
2024/01/07 12:00:38;;;;;;;;;;;;;;;9.36;32.84;97763.63;5046855;28;20328;-88
2024/01/07 12:03:04;;;;;;;;;;;;;;;10.03;31.97;97771.16;5051431;28;20631;-87
2024/01/07 12:05:30;;;;;;;;;;;;;;;9.48;31.95;97765.56;5051057;28;19956;-87
2024/01/07 12:07:56;;;;;;;;;;;;;;;6.22;37.76;97779.16;5028629;28;19921;-86
2024/01/07 12:10:23;;;;;;;;;;;;;;;7.10;36.76;97775.78;5042286;28;19921;-86
2024/01/07 12:12:50;;;;;;;;;;;;;;;7.05;37.14;97779.50;5048904;28;20359;-85
2024/01/07 12:15:17;;;;;;;;;;;;;;;6.95;37.00;97772.47;5047634;28;19923;-85
2024/01/07 12:17:54;;;;;;;;;;;;;;;8.01;35.02;97771.13;5047009;28;20381;-85
2024/01/07 12:20:20;;;;;;;;;;;;;;;7.36;36.78;97782.72;5047782;28;20372;-86
2024/01/07 12:22:47;;;;;;;;;;;;;;;8.11;35.16;97786.31;5047078;28;19955;-85
2024/01/07 12:25:13;;;;;;;;;;;;;;;9.83;32.33;97783.06;5045315;28;20003;-84
2024/01/07 12:27:40;;;;;;;;;;;;;;;9.94;31.54;97789.66;5023489;28;19928;-85
2024/01/07 12:30:06;;;;;;;;;;;;;;;9.49;32.58;97789.09;5043059;28;19921;-85
2024/01/07 12:32:32;;;;;;;;;;;;;;;8.19;34.41;97791.69;5049109;28;19928;-84
2024/01/07 12:34:59;;;;;;;;;;;;;;;8.69;33.83;97793.47;5050038;28;19925;-85
2024/01/07 12:37:28;;;;;;;;;;;;;;;7.70;35.06;97791.81;5045151;28;20275;-85
2024/01/07 12:39:54;;;;;;;;;;;;;;;7.48;35.90;97803.84;5049234;28;19921;-85
2024/01/07 12:42:21;;;;;;;;;;;;;;;7.10;36.94;97798.44;5043419;28;19921;-86
2024/01/07 12:44:48;;;;;;;;;;;;;;;7.31;35.80;97806.66;5039076;28;19925;-85
2024/01/07 12:47:14;;;;;;;;;;;;;;;8.20;34.55;97801.50;5041931;28;20058;-85
2024/01/07 12:49:40;;;;;;;;;;;;;;;7.58;36.09;97806.97;5046740;28;20023;-85
2024/01/07 12:52:06;;;;;;;;;;;;;;;7.51;35.94;97808.66;5044859;28;20028;-85